Armada, Nebraska
Current Conditions -  °F | °C
As of 7:35 AM on Wednesday 22 Oct 2014 (Local Time) from KEAR Reporting Station
Clear Clear  
Wind Chill: 13°   Ceiling: Unl
Heat Index: 13°   Visibility: 10mi
Dew Point: 11°   Wind: 13mph
Humidity: 88%   Direction: 140°SE
Pressure: 29.99"   Gusts: NA
Location:  40.9599°N, 99.3688°W
Report Text: KEAR 221235Z 14011KT 10SM CLR 13/11 A2999 RMK AO1
Loading
Personal Weather Stations






























Interactive Weather Map
Tropical Storm Tracking
New forecast layout! Learn more

10-Day Weather Forecast

Advertisements
Track Severe Weather on mobile